createdAt,value
2022-12-16T00:00:21.838Z,14.50
2022-12-16T00:03:30.994Z,16.93
2022-12-16T00:06:39.392Z,16.37
2022-12-16T00:09:49.035Z,20.33
2022-12-16T00:12:57.275Z,17.93
2022-12-16T00:16:08.107Z,17.83
2022-12-16T00:19:16.705Z,17.40
2022-12-16T00:22:25.282Z,17.27
2022-12-16T00:25:34.982Z,18.60
2022-12-16T00:28:44.125Z,19.63
2022-12-16T00:31:52.571Z,20.10
2022-12-16T00:35:02.230Z,17.57
2022-12-16T00:38:10.594Z,17.90
2022-12-16T00:41:20.504Z,19.47
2022-12-16T00:44:28.797Z,17.73
2022-12-16T00:47:41.024Z,22.50
2022-12-16T00:50:55.123Z,21.27
2022-12-16T00:54:03.762Z,20.97
2022-12-16T00:57:13.714Z,18.90
2022-12-16T01:00:22.457Z,18.00
2022-12-16T01:03:30.801Z,17.37
2022-12-16T01:06:39.087Z,17.53
2022-12-16T01:09:47.371Z,17.23
2022-12-16T01:12:56.956Z,19.93
2022-12-16T01:16:05.797Z,15.73
2022-12-16T01:19:14.027Z,15.90
2022-12-16T01:22:23.646Z,16.17
2022-12-16T01:25:32.028Z,17.60
2022-12-16T01:28:41.621Z,15.83
2022-12-16T01:31:49.952Z,14.37
2022-12-16T01:35:00.571Z,16.03
2022-12-16T01:38:08.818Z,14.47
2022-12-16T01:41:19.205Z,15.13
2022-12-16T01:44:29.004Z,18.43
2022-12-16T01:47:37.326Z,15.80
2022-12-16T01:50:46.787Z,17.83
2022-12-16T01:54:03.003Z,18.53
2022-12-16T01:57:16.745Z,17.13
2022-12-16T02:00:26.541Z,14.93
2022-12-16T02:03:38.287Z,14.93
2022-12-16T02:06:46.842Z,13.87
2022-12-16T02:09:57.185Z,15.97
2022-12-16T02:13:19.408Z,16.57
2022-12-16T02:16:37.784Z,14.33
2022-12-16T02:20:36.135Z,18.27
2022-12-16T02:24:31.802Z,17.47
2022-12-16T02:28:02.217Z,20.17
2022-12-16T02:31:27.640Z,15.57
2022-12-16T02:34:47.109Z,14.30
2022-12-16T02:38:22.377Z,12.97
2022-12-16T02:41:44.837Z,11.37
2022-12-16T02:45:02.543Z,12.27
2022-12-16T02:52:59.810Z,14.70
2022-12-16T02:56:26.935Z,13.23
2022-12-16T02:59:45.079Z,13.93
2022-12-16T03:03:02.291Z,16.77
2022-12-16T03:06:15.052Z,15.10
2022-12-16T03:09:30.484Z,14.23
2022-12-16T03:12:44.627Z,14.03
2022-12-16T03:15:59.477Z,14.67
2022-12-16T03:19:12.550Z,13.73
2022-12-16T03:22:28.981Z,11.87
2022-12-16T03:25:45.164Z,14.83
2022-12-16T03:29:02.669Z,15.13
2022-12-16T03:32:18.890Z,13.63
2022-12-16T03:35:34.459Z,15.87
2022-12-16T03:38:46.600Z,16.70
2022-12-16T03:41:57.543Z,14.37
2022-12-16T03:45:09.352Z,16.67
2022-12-16T03:48:20.521Z,18.60
2022-12-16T03:51:28.928Z,16.23
2022-12-16T03:54:37.163Z,12.93
2022-12-16T03:57:46.913Z,14.40
2022-12-16T04:00:56.329Z,15.00
2022-12-16T04:04:06.959Z,15.20
2022-12-16T04:07:24.766Z,13.07
2022-12-16T04:10:50.837Z,17.00
2022-12-16T04:14:18.364Z,17.40
2022-12-16T04:17:44.013Z,18.23
2022-12-16T04:21:14.817Z,21.10
2022-12-16T04:24:30.936Z,19.43
2022-12-16T04:27:39.219Z,17.57
2022-12-16T04:30:48.796Z,22.63
2022-12-16T04:34:26.256Z,19.67
2022-12-16T04:38:03.411Z,23.67
2022-12-16T04:41:29.560Z,24.03
2022-12-16T04:44:55.709Z,22.83
2022-12-16T04:48:23.532Z,23.33
2022-12-16T04:51:49.129Z,23.97
2022-12-16T04:55:14.648Z,23.87
2022-12-16T04:58:40.423Z,25.77
2022-12-16T05:02:06.389Z,24.23
2022-12-16T05:05:33.658Z,24.43
2022-12-16T05:08:59.433Z,21.03
2022-12-16T05:12:25.094Z,26.10
2022-12-16T05:15:50.722Z,24.37
2022-12-16T05:19:12.872Z,22.83
2022-12-16T05:22:40.302Z,22.33
2022-12-16T05:26:06.217Z,20.90
2022-12-16T05:29:32.090Z,20.97
2022-12-16T05:32:57.590Z,20.87
2022-12-16T05:36:24.300Z,20.87
2022-12-16T05:39:51.459Z,17.57
2022-12-16T05:43:17.475Z,19.23
2022-12-16T05:46:43.511Z,24.43
2022-12-16T05:50:09.472Z,25.33
2022-12-16T05:53:35.197Z,25.47
2022-12-16T05:57:10.981Z,22.90
2022-12-16T06:00:37.565Z,23.20
2022-12-16T06:04:03.593Z,27.93
2022-12-16T06:07:29.477Z,26.27
2022-12-16T06:10:55.144Z,26.83
2022-12-16T06:14:22.394Z,31.37
2022-12-16T06:17:48.152Z,26.53
2022-12-16T06:21:14.019Z,26.93
2022-12-16T06:24:39.772Z,27.33
2022-12-16T06:28:09.794Z,25.27
2022-12-16T06:31:36.744Z,24.30
2022-12-16T06:35:02.776Z,24.20
2022-12-16T06:38:28.799Z,26.50
2022-12-16T06:41:54.878Z,27.27
2022-12-16T06:45:20.610Z,25.33
2022-12-16T06:48:44.007Z,29.77
2022-12-16T06:52:24.357Z,33.70
2022-12-16T06:55:59.602Z,26.57
2022-12-16T06:59:25.146Z,28.87
2022-12-16T07:02:50.994Z,26.17
2022-12-16T07:06:17.996Z,26.73
2022-12-16T07:09:43.831Z,31.80
2022-12-16T07:13:09.795Z,27.90
2022-12-16T07:16:35.653Z,26.40
2022-12-16T07:20:01.214Z,25.07
2022-12-16T07:23:28.460Z,41.57
2022-12-16T07:26:54.384Z,32.83
2022-12-16T07:30:20.224Z,30.47
2022-12-16T07:33:46.146Z,33.73
2022-12-16T07:37:11.814Z,32.97
2022-12-16T07:40:38.746Z,33.43
2022-12-16T07:44:04.422Z,31.13
2022-12-16T07:47:30.332Z,32.17
2022-12-16T07:50:56.506Z,28.13
2022-12-16T07:54:22.493Z,30.87
2022-12-16T07:57:49.734Z,32.03
2022-12-16T08:01:15.441Z,37.37
2022-12-16T08:04:41.316Z,39.83
2022-12-16T08:08:07.197Z,35.73
2022-12-16T08:11:32.936Z,33.23
2022-12-16T08:14:59.771Z,35.13
2022-12-16T08:18:25.621Z,37.47
2022-12-16T08:21:51.411Z,37.47
2022-12-16T08:25:31.711Z,34.40
2022-12-16T08:29:05.482Z,37.20
2022-12-16T08:32:44.495Z,39.33
2022-12-16T08:36:10.357Z,41.93
2022-12-16T08:39:36.296Z,37.90
2022-12-16T08:43:03.121Z,38.20
2022-12-16T08:46:31.211Z,39.00
2022-12-16T08:50:01.592Z,38.33
2022-12-16T08:53:28.086Z,43.07
2022-12-16T08:56:53.895Z,42.77
2022-12-16T09:00:20.567Z,34.13
2022-12-16T09:03:46.538Z,38.07
2022-12-16T09:07:25.217Z,39.23
2022-12-16T09:10:50.828Z,36.73
2022-12-16T09:14:17.023Z,31.77
2022-12-16T09:17:42.702Z,38.17
2022-12-16T09:21:12.437Z,35.77
2022-12-16T09:24:35.880Z,38.53
2022-12-16T09:28:01.525Z,32.83
2022-12-16T09:31:27.486Z,34.17
2022-12-16T09:34:49.664Z,34.67
2022-12-16T09:38:15.132Z,34.33
2022-12-16T09:42:00.392Z,31.80
2022-12-16T09:45:39.327Z,33.73
2022-12-16T09:49:12.940Z,31.63
2022-12-16T09:52:41.297Z,33.80
2022-12-16T09:56:07.230Z,29.83
2022-12-16T09:59:43.659Z,30.47
2022-12-16T10:03:10.351Z,36.67
2022-12-16T10:06:52.618Z,30.60
2022-12-16T10:10:34.824Z,28.97
2022-12-16T10:14:19.266Z,25.77
2022-12-16T10:17:46.841Z,32.27
2022-12-16T10:21:14.131Z,32.50
2022-12-16T10:24:57.893Z,31.47
2022-12-16T10:28:34.842Z,32.20
2022-12-16T10:32:01.421Z,31.43
2022-12-16T10:35:40.704Z,31.20
2022-12-16T10:39:11.539Z,30.23
2022-12-16T10:42:51.215Z,29.37
2022-12-16T10:46:19.062Z,29.00
2022-12-16T10:49:47.469Z,30.67
2022-12-16T10:53:21.454Z,34.03
2022-12-16T10:57:11.773Z,32.57
2022-12-16T11:00:55.065Z,31.63
2022-12-16T11:04:47.287Z,30.03
2022-12-16T11:08:13.269Z,30.87
2022-12-16T11:11:43.910Z,31.10
2022-12-16T11:15:28.788Z,27.83
2022-12-16T11:19:08.815Z,29.00
2022-12-16T11:22:38.825Z,34.20
2022-12-16T11:26:04.597Z,47.33
2022-12-16T11:30:28.474Z,31.77
2022-12-16T11:34:20.989Z,32.77
2022-12-16T11:37:50.342Z,33.27
2022-12-16T11:41:18.320Z,37.13
2022-12-16T11:44:51.454Z,31.53
2022-12-16T11:48:26.941Z,35.70
2022-12-16T11:52:08.106Z,31.70
2022-12-16T11:59:45.759Z,39.73
2022-12-16T12:03:24.347Z,42.70
2022-12-16T12:07:11.290Z,30.40
2022-12-16T12:11:21.883Z,30.23
2022-12-16T12:14:58.143Z,32.20
2022-12-16T12:18:42.478Z,28.30
2022-12-16T12:22:19.958Z,28.63
2022-12-16T12:25:59.456Z,32.33
2022-12-16T12:29:37.175Z,32.47
2022-12-16T12:33:16.955Z,30.60
2022-12-16T12:36:56.829Z,28.33
2022-12-16T12:40:44.706Z,31.87
2022-12-16T12:44:36.396Z,32.53
2022-12-16T12:48:16.322Z,30.37
2022-12-16T12:51:53.074Z,33.97
2022-12-16T12:55:29.196Z,33.37
2022-12-16T12:58:57.573Z,37.90
2022-12-16T13:02:31.123Z,39.77
2022-12-16T13:05:58.927Z,33.37
2022-12-16T13:09:49.648Z,34.40
2022-12-16T13:13:52.534Z,28.23
2022-12-16T13:17:23.705Z,33.90
2022-12-16T13:20:56.709Z,29.67
2022-12-16T13:24:52.594Z,34.40
2022-12-16T13:28:19.103Z,33.60
2022-12-16T13:31:48.688Z,28.27
2022-12-16T13:35:19.716Z,27.67
2022-12-16T13:38:45.715Z,28.13
2022-12-16T13:42:19.110Z,27.90
2022-12-16T13:45:51.926Z,33.30
2022-12-16T13:49:59.743Z,25.70
2022-12-16T13:53:33.458Z,37.90
2022-12-16T13:57:07.109Z,29.67
2022-12-16T14:00:41.690Z,32.03
2022-12-16T14:04:11.804Z,32.03
2022-12-16T14:07:41.832Z,31.73
2022-12-16T14:11:19.467Z,27.37
2022-12-16T14:14:52.696Z,33.60
2022-12-16T14:18:41.914Z,29.93
2022-12-16T14:22:18.876Z,31.87
2022-12-16T14:25:44.978Z,30.47
2022-12-16T14:29:08.024Z,30.40
2022-12-16T14:32:45.059Z,33.47
2022-12-16T14:36:12.307Z,32.90
2022-12-16T14:39:42.467Z,27.27
2022-12-16T14:43:13.168Z,35.60
2022-12-16T14:46:48.828Z,33.43
2022-12-16T14:50:14.443Z,28.97
2022-12-16T14:53:49.241Z,29.23
2022-12-16T14:57:16.469Z,33.63
2022-12-16T15:00:43.544Z,25.77
2022-12-16T15:04:09.912Z,30.77
2022-12-16T15:07:36.122Z,28.23
2022-12-16T15:11:03.713Z,24.43
2022-12-16T15:14:37.712Z,24.93
2022-12-16T15:18:09.537Z,34.77
2022-12-16T15:21:35.578Z,28.83
2022-12-16T15:25:02.627Z,26.73
2022-12-16T15:28:55.564Z,25.97
2022-12-16T15:32:21.513Z,30.37
2022-12-16T15:35:51.523Z,25.83
2022-12-16T15:39:17.423Z,23.70
2022-12-16T15:42:47.172Z,22.73
2022-12-16T15:46:14.473Z,24.53
2022-12-16T15:49:51.036Z,23.00
2022-12-16T15:53:35.882Z,22.43
2022-12-16T15:57:04.050Z,23.70
2022-12-16T16:00:41.913Z,23.90
2022-12-16T16:04:12.198Z,27.03
2022-12-16T16:07:41.027Z,26.43
2022-12-16T16:11:07.166Z,26.20
2022-12-16T16:14:32.789Z,27.37
2022-12-16T16:17:58.586Z,26.70
2022-12-16T16:21:25.818Z,25.47
2022-12-16T16:24:51.652Z,26.87
2022-12-16T16:28:17.656Z,26.30
2022-12-16T16:31:43.526Z,23.83
2022-12-16T16:35:10.269Z,25.97
2022-12-16T16:38:37.470Z,25.10
2022-12-16T16:42:03.733Z,24.30
2022-12-16T16:45:30.468Z,25.47
2022-12-16T16:48:56.507Z,22.30
2022-12-16T16:52:22.055Z,22.17
2022-12-16T16:55:49.176Z,28.20
2022-12-16T17:03:05.244Z,30.00
2022-12-16T17:06:31.333Z,22.67
2022-12-16T17:09:57.319Z,22.97
2022-12-16T17:13:24.948Z,18.80
2022-12-16T17:16:51.037Z,22.30
2022-12-16T17:20:16.688Z,20.27
2022-12-16T17:23:42.514Z,19.93
2022-12-16T17:27:23.163Z,21.13
2022-12-16T17:31:05.513Z,25.27
2022-12-16T17:34:31.522Z,25.00
2022-12-16T17:37:57.617Z,25.03
2022-12-16T17:41:23.809Z,24.37
2022-12-16T17:44:49.693Z,25.03
2022-12-16T17:48:16.785Z,23.27
2022-12-16T17:51:43.542Z,31.23
2022-12-16T17:55:09.618Z,28.60
2022-12-16T17:58:35.525Z,22.13
2022-12-16T18:02:01.400Z,23.50
2022-12-16T18:05:36.674Z,26.60
2022-12-16T18:09:05.121Z,21.80
2022-12-16T18:12:30.839Z,21.90
2022-12-16T18:15:56.940Z,24.23
2022-12-16T18:19:22.831Z,25.00
2022-12-16T18:22:50.512Z,28.90
2022-12-16T18:26:20.188Z,22.50
2022-12-16T18:29:46.520Z,22.70
2022-12-16T18:33:12.533Z,28.07
2022-12-16T18:36:38.548Z,26.27
2022-12-16T18:40:06.006Z,26.50
2022-12-16T18:43:32.112Z,25.87
2022-12-16T18:46:58.068Z,27.07
2022-12-16T18:50:29.417Z,26.30
2022-12-16T18:53:56.467Z,23.07
2022-12-16T18:57:23.350Z,26.77
2022-12-16T19:00:49.296Z,24.97
2022-12-16T19:04:16.380Z,24.63
2022-12-16T19:07:44.082Z,25.00
2022-12-16T19:11:11.966Z,24.83
2022-12-16T19:14:39.760Z,25.67
2022-12-16T19:18:05.630Z,26.23
2022-12-16T19:21:32.160Z,23.77
2022-12-16T19:24:57.984Z,28.53
2022-12-16T19:28:23.811Z,29.93
2022-12-16T19:31:51.838Z,26.57
2022-12-16T19:35:18.025Z,30.30
2022-12-16T19:38:44.342Z,32.87
2022-12-16T19:42:12.113Z,29.50
2022-12-16T19:45:38.170Z,27.80
2022-12-16T19:49:05.403Z,25.80
2022-12-16T19:52:31.079Z,25.97
2022-12-16T19:55:57.016Z,30.40
2022-12-16T19:59:22.822Z,30.10
2022-12-16T20:02:50.471Z,34.90
2022-12-16T20:06:26.540Z,34.73
2022-12-16T20:09:54.766Z,33.50
2022-12-16T20:13:30.079Z,32.20
2022-12-16T20:16:59.242Z,29.53
2022-12-16T20:20:26.449Z,29.37
2022-12-16T20:23:54.272Z,24.90
2022-12-16T20:27:20.465Z,33.63
2022-12-16T20:30:46.320Z,25.07
2022-12-16T20:34:13.134Z,32.27
2022-12-16T20:37:51.656Z,30.63
2022-12-16T20:41:21.603Z,31.73
2022-12-16T20:44:47.843Z,35.67
2022-12-16T20:48:14.399Z,31.37
2022-12-16T20:51:40.716Z,30.50
2022-12-16T20:55:06.398Z,31.80
2022-12-16T20:58:38.830Z,30.43
2022-12-16T21:05:50.660Z,32.43
2022-12-16T21:09:18.194Z,36.70
2022-12-16T21:12:44.001Z,29.90
2022-12-16T21:16:15.876Z,26.20
2022-12-16T21:19:42.361Z,27.70
2022-12-16T21:23:15.665Z,31.30
2022-12-16T21:26:41.793Z,28.90
2022-12-16T21:30:07.944Z,25.77
2022-12-16T21:33:38.807Z,25.23
2022-12-16T21:37:04.502Z,29.63
2022-12-16T21:40:36.349Z,26.60
2022-12-16T21:44:02.308Z,26.67
2022-12-16T21:47:28.191Z,29.70
2022-12-16T21:50:55.846Z,25.63
2022-12-16T21:54:22.907Z,30.67
2022-12-16T21:57:48.975Z,34.50
2022-12-16T22:01:17.179Z,27.10
2022-12-16T22:04:43.577Z,31.53
2022-12-16T22:08:13.243Z,33.83
2022-12-16T22:11:39.481Z,23.93
2022-12-16T22:15:05.515Z,30.20
2022-12-16T22:18:31.809Z,28.60
2022-12-16T22:21:57.995Z,26.50
2022-12-16T22:25:26.256Z,21.93
2022-12-16T22:28:52.155Z,27.67
2022-12-16T22:32:18.177Z,25.13
2022-12-16T22:35:44.301Z,22.23
2022-12-16T22:39:06.857Z,24.00
2022-12-16T22:42:33.966Z,26.80
2022-12-16T22:45:59.778Z,26.40
2022-12-16T22:49:25.444Z,24.93
2022-12-16T22:53:00.117Z,23.80
2022-12-16T22:56:26.450Z,31.20
2022-12-16T22:59:53.985Z,29.13
2022-12-16T23:03:20.395Z,28.27
2022-12-16T23:06:46.419Z,25.37
2022-12-16T23:10:11.952Z,30.57
2022-12-16T23:13:37.822Z,32.47
2022-12-16T23:17:05.535Z,30.43
2022-12-16T23:20:31.226Z,29.67
2022-12-16T23:23:57.221Z,31.97
2022-12-16T23:27:23.259Z,32.63
2022-12-16T23:30:48.975Z,30.60
2022-12-16T23:34:15.809Z,31.57
2022-12-16T23:37:42.443Z,24.10
2022-12-16T23:41:11.194Z,26.43
2022-12-16T23:44:37.240Z,22.67
2022-12-16T23:48:03.629Z,23.33
2022-12-16T23:51:39.345Z,16.97
2022-12-16T23:55:16.583Z,21.57
2022-12-16T23:58:42.443Z,21.80
